sensor_id;sensor_type;location;lat;lon;timestamp;pressure;altitude;pressure_sealevel;temperature;humidity
67842;BME280;54642;59.126;37.876;2022-08-14T00:01:23;100584.38;;;22.28;68.89
67842;BME280;54642;59.126;37.876;2022-08-14T00:03:49;100595.34;;;22.39;67.85
67842;BME280;54642;59.126;37.876;2022-08-14T00:06:15;100590.72;;;22.24;68.39
67842;BME280;54642;59.126;37.876;2022-08-14T00:08:41;100590.34;;;22.13;69.30
67842;BME280;54642;59.126;37.876;2022-08-14T00:11:07;100588.38;;;22.18;69.08
67842;BME280;54642;59.126;37.876;2022-08-14T00:13:33;100574.34;;;22.16;69.05
67842;BME280;54642;59.126;37.876;2022-08-14T00:16:01;100524.69;;;21.86;68.53
67842;BME280;54642;59.126;37.876;2022-08-14T00:18:27;100555.31;;;22.09;68.86
67842;BME280;54642;59.126;37.876;2022-08-14T00:20:54;100596.69;;;22.29;68.87
67842;BME280;54642;59.126;37.876;2022-08-14T00:23:21;100522.09;;;21.84;69.60
67842;BME280;54642;59.126;37.876;2022-08-14T00:25:50;100593.25;;;22.27;70.04
67842;BME280;54642;59.126;37.876;2022-08-14T00:28:17;100584.78;;;22.19;69.60
67842;BME280;54642;59.126;37.876;2022-08-14T00:30:45;100593.34;;;22.24;69.70
67842;BME280;54642;59.126;37.876;2022-08-14T00:33:11;100586.75;;;22.14;69.35
67842;BME280;54642;59.126;37.876;2022-08-14T00:35:37;100607.47;;;22.23;69.10
67842;BME280;54642;59.126;37.876;2022-08-14T00:38:03;100604.03;;;22.21;69.80
67842;BME280;54642;59.126;37.876;2022-08-14T00:40:29;100606.75;;;22.19;69.39
67842;BME280;54642;59.126;37.876;2022-08-14T00:42:55;100607.81;;;22.15;69.58
67842;BME280;54642;59.126;37.876;2022-08-14T00:45:21;100607.75;;;22.17;70.06
67842;BME280;54642;59.126;37.876;2022-08-14T00:47:48;100602.75;;;22.11;69.96
67842;BME280;54642;59.126;37.876;2022-08-14T00:50:17;100618.59;;;22.11;69.93
67842;BME280;54642;59.126;37.876;2022-08-14T00:52:50;100595.44;;;21.97;69.85
67842;BME280;54642;59.126;37.876;2022-08-14T00:55:18;100606.72;;;22.00;69.75
67842;BME280;54642;59.126;37.876;2022-08-14T00:57:44;100600.72;;;21.97;69.83
67842;BME280;54642;59.126;37.876;2022-08-14T01:00:31;100606.06;;;21.95;70.24
67842;BME280;54642;59.126;37.876;2022-08-14T01:02:59;100617.53;;;21.94;70.13
67842;BME280;54642;59.126;37.876;2022-08-14T01:05:25;100613.31;;;21.90;70.48
67842;BME280;54642;59.126;37.876;2022-08-14T01:07:54;100622.41;;;21.83;70.54
67842;BME280;54642;59.126;37.876;2022-08-14T01:10:25;100624.59;;;21.73;70.04
67842;BME280;54642;59.126;37.876;2022-08-14T01:13:14;100622.47;;;21.61;70.70
67842;BME280;54642;59.126;37.876;2022-08-14T01:15:43;100580.59;;;21.53;70.97
67842;BME280;54642;59.126;37.876;2022-08-14T01:18:10;100614.78;;;21.77;70.87
67842;BME280;54642;59.126;37.876;2022-08-14T01:20:55;100622.59;;;21.78;70.78
67842;BME280;54642;59.126;37.876;2022-08-14T01:23:40;100614.34;;;21.65;70.76
67842;BME280;54642;59.126;37.876;2022-08-14T01:26:07;100587.94;;;21.45;70.66
67842;BME280;54642;59.126;37.876;2022-08-14T01:28:33;100587.03;;;21.46;70.82
67842;BME280;54642;59.126;37.876;2022-08-14T01:31:14;100627.75;;;21.61;71.15
67842;BME280;54642;59.126;37.876;2022-08-14T01:33:42;100635.47;;;21.65;71.55
67842;BME280;54642;59.126;37.876;2022-08-14T01:36:11;100589.06;;;21.39;71.13
67842;BME280;54642;59.126;37.876;2022-08-14T01:38:39;100628.84;;;21.55;71.54
67842;BME280;54642;59.126;37.876;2022-08-14T01:41:12;100633.03;;;21.61;71.61
67842;BME280;54642;59.126;37.876;2022-08-14T01:43:54;100631.84;;;21.68;71.37
67842;BME280;54642;59.126;37.876;2022-08-14T01:46:24;100629.91;;;21.51;71.63
67842;BME280;54642;59.126;37.876;2022-08-14T01:48:50;100629.91;;;21.51;71.17
67842;BME280;54642;59.126;37.876;2022-08-14T01:51:19;100618.28;;;21.33;71.48
67842;BME280;54642;59.126;37.876;2022-08-14T01:53:52;100630.38;;;21.39;71.49
67842;BME280;54642;59.126;37.876;2022-08-14T01:56:19;100557.25;;;21.00;71.11
67842;BME280;54642;59.126;37.876;2022-08-14T01:58:47;100617.34;;;21.36;71.27
67842;BME280;54642;59.126;37.876;2022-08-14T02:01:18;100553.03;;;20.95;71.25
67842;BME280;54642;59.126;37.876;2022-08-14T02:03:45;100591.91;;;21.12;71.45
67842;BME280;54642;59.126;37.876;2022-08-14T02:06:12;100623.41;;;21.38;71.26
67842;BME280;54642;59.126;37.876;2022-08-14T02:08:39;100549.66;;;20.92;71.74
67842;BME280;54642;59.126;37.876;2022-08-14T02:11:08;100631.31;;;21.38;71.72
67842;BME280;54642;59.126;37.876;2022-08-14T02:13:57;100585.69;;;21.13;71.26
67842;BME280;54642;59.126;37.876;2022-08-14T02:16:27;100622.66;;;21.34;72.34
67842;BME280;54642;59.126;37.876;2022-08-14T02:19:01;100586.13;;;21.03;72.02
67842;BME280;54642;59.126;37.876;2022-08-14T02:21:29;100632.59;;;21.27;72.09
67842;BME280;54642;59.126;37.876;2022-08-14T02:23:56;100619.47;;;21.26;71.87
67842;BME280;54642;59.126;37.876;2022-08-14T02:26:25;100627.19;;;21.30;71.92
67842;BME280;54642;59.126;37.876;2022-08-14T02:28:54;100632.28;;;21.13;72.17
67842;BME280;54642;59.126;37.876;2022-08-14T02:31:21;100611.78;;;20.98;72.28
67842;BME280;54642;59.126;37.876;2022-08-14T02:33:47;100636.44;;;21.19;72.60
67842;BME280;54642;59.126;37.876;2022-08-14T02:36:13;100591.66;;;20.97;72.57
67842;BME280;54642;59.126;37.876;2022-08-14T02:38:40;100631.22;;;21.17;72.52
67842;BME280;54642;59.126;37.876;2022-08-14T02:41:09;100633.19;;;21.12;72.27
67842;BME280;54642;59.126;37.876;2022-08-14T02:43:35;100573.28;;;20.73;72.05
67842;BME280;54642;59.126;37.876;2022-08-14T02:46:05;100624.00;;;21.00;72.04
67842;BME280;54642;59.126;37.876;2022-08-14T02:48:35;100642.25;;;21.05;71.92
67842;BME280;54642;59.126;37.876;2022-08-14T02:51:07;100585.38;;;20.77;72.17
67842;BME280;54642;59.126;37.876;2022-08-14T02:53:33;100592.13;;;20.84;72.51
67842;BME280;54642;59.126;37.876;2022-08-14T02:56:00;100617.00;;;20.99;73.19
67842;BME280;54642;59.126;37.876;2022-08-14T02:58:26;100635.81;;;21.12;72.67
67842;BME280;54642;59.126;37.876;2022-08-14T03:00:52;100628.06;;;21.09;72.24
67842;BME280;54642;59.126;37.876;2022-08-14T03:03:20;100595.81;;;20.80;72.15
67842;BME280;54642;59.126;37.876;2022-08-14T03:05:50;100640.91;;;20.94;72.18
67842;BME280;54642;59.126;37.876;2022-08-14T03:08:17;100594.34;;;20.73;72.19
67842;BME280;54642;59.126;37.876;2022-08-14T03:10:44;100644.03;;;21.04;72.33
67842;BME280;54642;59.126;37.876;2022-08-14T03:13:11;100639.34;;;21.12;72.58
67842;BME280;54642;59.126;37.876;2022-08-14T03:15:36;100649.50;;;21.22;72.22
67842;BME280;54642;59.126;37.876;2022-08-14T03:18:17;100597.28;;;20.87;72.18
67842;BME280;54642;59.126;37.876;2022-08-14T03:20:42;100646.16;;;21.18;71.63
67842;BME280;54642;59.126;37.876;2022-08-14T03:23:08;100628.41;;;21.00;72.27
67842;BME280;54642;59.126;37.876;2022-08-14T03:25:34;100591.44;;;20.79;72.57
67842;BME280;54642;59.126;37.876;2022-08-14T03:28:07;100635.97;;;21.09;73.02
67842;BME280;54642;59.126;37.876;2022-08-14T03:30:34;100651.78;;;21.09;72.62
67842;BME280;54642;59.126;37.876;2022-08-14T03:33:01;100649.81;;;21.14;72.76
67842;BME280;54642;59.126;37.876;2022-08-14T03:35:28;100601.72;;;20.85;72.27
67842;BME280;54642;59.126;37.876;2022-08-14T03:38:03;100602.78;;;20.81;72.54
67842;BME280;54642;59.126;37.876;2022-08-14T03:40:29;100636.09;;;21.06;72.20
67842;BME280;54642;59.126;37.876;2022-08-14T03:42:55;100637.00;;;21.05;72.70
67842;BME280;54642;59.126;37.876;2022-08-14T03:45:21;100604.38;;;20.85;72.02
67842;BME280;54642;59.126;37.876;2022-08-14T03:47:49;100653.38;;;21.13;73.05
67842;BME280;54642;59.126;37.876;2022-08-14T03:50:15;100645.94;;;21.23;71.91
67842;BME280;54642;59.126;37.876;2022-08-14T03:52:41;100641.56;;;21.23;71.68
67842;BME280;54642;59.126;37.876;2022-08-14T03:55:10;100621.75;;;21.13;72.30
67842;BME280;54642;59.126;37.876;2022-08-14T03:57:38;100644.47;;;21.38;72.23
67842;BME280;54642;59.126;37.876;2022-08-14T04:00:08;100635.59;;;21.40;71.85
67842;BME280;54642;59.126;37.876;2022-08-14T04:02:39;100649.22;;;21.51;71.42
67842;BME280;54642;59.126;37.876;2022-08-14T04:05:09;100600.97;;;21.27;71.21
67842;BME280;54642;59.126;37.876;2022-08-14T04:07:35;100606.28;;;21.26;71.61
67842;BME280;54642;59.126;37.876;2022-08-14T04:10:05;100599.38;;;21.23;71.79
67842;BME280;54642;59.126;37.876;2022-08-14T04:12:31;100589.34;;;21.31;71.33
67842;BME280;54642;59.126;37.876;2022-08-14T04:14:58;100648.78;;;21.62;71.68
67842;BME280;54642;59.126;37.876;2022-08-14T04:17:25;100595.84;;;21.45;70.93
67842;BME280;54642;59.126;37.876;2022-08-14T04:19:52;100627.44;;;21.68;70.73
67842;BME280;54642;59.126;37.876;2022-08-14T04:22:18;100603.22;;;21.59;70.53
67842;BME280;54642;59.126;37.876;2022-08-14T04:24:46;100641.88;;;21.80;70.91
67842;BME280;54642;59.126;37.876;2022-08-14T04:27:12;100632.19;;;21.81;70.49
67842;BME280;54642;59.126;37.876;2022-08-14T04:29:40;100650.91;;;21.95;69.96
67842;BME280;54642;59.126;37.876;2022-08-14T04:32:10;100641.50;;;21.89;69.62
67842;BME280;54642;59.126;37.876;2022-08-14T04:34:37;100599.19;;;21.70;70.04
67842;BME280;54642;59.126;37.876;2022-08-14T04:37:09;100640.50;;;21.92;69.96
67842;BME280;54642;59.126;37.876;2022-08-14T04:39:54;100638.97;;;21.86;69.54
67842;BME280;54642;59.126;37.876;2022-08-14T04:42:40;100607.38;;;21.64;70.05
67842;BME280;54642;59.126;37.876;2022-08-14T04:45:26;100620.97;;;21.76;69.58
67842;BME280;54642;59.126;37.876;2022-08-14T04:47:57;100559.13;;;21.40;69.84
67842;BME280;54642;59.126;37.876;2022-08-14T04:50:47;100635.34;;;21.89;69.82
67842;BME280;54642;59.126;37.876;2022-08-14T04:53:19;100642.22;;;21.93;69.97
67842;BME280;54642;59.126;37.876;2022-08-14T04:55:47;100637.66;;;21.97;69.70
67842;BME280;54642;59.126;37.876;2022-08-14T04:58:14;100640.25;;;21.98;69.58
67842;BME280;54642;59.126;37.876;2022-08-14T05:00:43;100636.41;;;22.05;69.12
67842;BME280;54642;59.126;37.876;2022-08-14T05:03:09;100621.88;;;22.16;69.02
67842;BME280;54642;59.126;37.876;2022-08-14T05:05:35;100590.88;;;22.00;68.71
67842;BME280;54642;59.126;37.876;2022-08-14T05:08:07;100568.28;;;22.14;68.28
67842;BME280;54642;59.126;37.876;2022-08-14T05:10:35;100638.31;;;22.62;67.93
67842;BME280;54642;59.126;37.876;2022-08-14T05:13:01;100632.06;;;22.64;67.80
67842;BME280;54642;59.126;37.876;2022-08-14T05:15:31;100633.69;;;22.67;68.53
67842;BME280;54642;59.126;37.876;2022-08-14T05:17:57;100617.81;;;22.67;68.53
67842;BME280;54642;59.126;37.876;2022-08-14T05:20:23;100609.81;;;22.50;68.16
67842;BME280;54642;59.126;37.876;2022-08-14T05:22:49;100639.97;;;22.64;67.99
67842;BME280;54642;59.126;37.876;2022-08-14T05:25:15;100642.56;;;22.66;67.68
67842;BME280;54642;59.126;37.876;2022-08-14T05:27:42;100631.13;;;22.84;67.79
67842;BME280;54642;59.126;37.876;2022-08-14T05:30:09;100597.84;;;22.80;66.88
67842;BME280;54642;59.126;37.876;2022-08-14T05:32:35;100631.53;;;23.13;67.00
67842;BME280;54642;59.126;37.876;2022-08-14T05:35:01;100639.16;;;23.19;66.68
67842;BME280;54642;59.126;37.876;2022-08-14T05:37:27;100628.44;;;23.22;66.87
67842;BME280;54642;59.126;37.876;2022-08-14T05:39:54;100632.97;;;23.20;66.56
67842;BME280;54642;59.126;37.876;2022-08-14T05:42:20;100642.31;;;23.28;66.64
67842;BME280;54642;59.126;37.876;2022-08-14T05:44:46;100612.91;;;23.16;67.02
67842;BME280;54642;59.126;37.876;2022-08-14T05:47:12;100628.50;;;23.40;66.26
67842;BME280;54642;59.126;37.876;2022-08-14T05:49:38;100639.31;;;23.53;65.76
67842;BME280;54642;59.126;37.876;2022-08-14T05:52:04;100605.06;;;23.32;66.28
67842;BME280;54642;59.126;37.876;2022-08-14T05:54:30;100640.78;;;23.58;65.71
67842;BME280;54642;59.126;37.876;2022-08-14T05:56:56;100629.28;;;23.59;65.42
67842;BME280;54642;59.126;37.876;2022-08-14T05:59:22;100644.63;;;23.70;64.72
67842;BME280;54642;59.126;37.876;2022-08-14T06:01:48;100595.19;;;23.53;64.83
67842;BME280;54642;59.126;37.876;2022-08-14T06:04:14;100572.19;;;23.38;64.34
67842;BME280;54642;59.126;37.876;2022-08-14T06:06:40;100602.50;;;23.66;64.40
67842;BME280;54642;59.126;37.876;2022-08-14T06:09:05;100645.38;;;23.91;64.50
67842;BME280;54642;59.126;37.876;2022-08-14T06:11:33;100623.22;;;23.92;63.64
67842;BME280;54642;59.126;37.876;2022-08-14T06:13:59;100638.78;;;24.16;64.04
67842;BME280;54642;59.126;37.876;2022-08-14T06:16:25;100609.97;;;24.10;63.62
67842;BME280;54642;59.126;37.876;2022-08-14T06:18:51;100603.16;;;24.06;63.50
67842;BME280;54642;59.126;37.876;2022-08-14T06:21:17;100603.44;;;24.17;63.62
67842;BME280;54642;59.126;37.876;2022-08-14T06:23:42;100626.38;;;24.50;63.33
67842;BME280;54642;59.126;37.876;2022-08-14T06:26:09;100628.09;;;24.51;63.43
67842;BME280;54642;59.126;37.876;2022-08-14T06:28:35;100605.63;;;24.42;62.45
67842;BME280;54642;59.126;37.876;2022-08-14T06:31:01;100615.16;;;24.62;62.04
67842;BME280;54642;59.126;37.876;2022-08-14T06:33:27;100625.59;;;24.81;61.51
67842;BME280;54642;59.126;37.876;2022-08-14T06:35:53;100631.16;;;24.92;61.45
67842;BME280;54642;59.126;37.876;2022-08-14T06:38:21;100626.63;;;25.10;61.74
67842;BME280;54642;59.126;37.876;2022-08-14T06:40:48;100593.94;;;25.10;61.25
67842;BME280;54642;59.126;37.876;2022-08-14T06:43:15;100628.50;;;25.40;61.13
67842;BME280;54642;59.126;37.876;2022-08-14T06:45:43;100602.22;;;25.36;60.36
67842;BME280;54642;59.126;37.876;2022-08-14T06:48:18;100607.59;;;25.34;60.74
67842;BME280;54642;59.126;37.876;2022-08-14T06:50:45;100628.09;;;25.62;60.58
67842;BME280;54642;59.126;37.876;2022-08-14T06:53:12;100617.44;;;25.48;60.66
67842;BME280;54642;59.126;37.876;2022-08-14T06:55:42;100632.38;;;25.65;60.45
67842;BME280;54642;59.126;37.876;2022-08-14T06:58:13;100625.78;;;25.86;59.79
67842;BME280;54642;59.126;37.876;2022-08-14T07:00:40;100642.25;;;26.08;60.09
67842;BME280;54642;59.126;37.876;2022-08-14T07:03:27;100645.78;;;26.08;60.02
67842;BME280;54642;59.126;37.876;2022-08-14T07:06:13;100615.66;;;25.93;60.39
67842;BME280;54642;59.126;37.876;2022-08-14T07:08:39;100603.50;;;25.89;59.47
67842;BME280;54642;59.126;37.876;2022-08-14T07:11:05;100634.84;;;26.13;59.83
67842;BME280;54642;59.126;37.876;2022-08-14T07:13:31;100633.25;;;26.10;59.67
67842;BME280;54642;59.126;37.876;2022-08-14T07:15:58;100627.75;;;26.13;59.37
67842;BME280;54642;59.126;37.876;2022-08-14T07:18:34;100631.34;;;26.27;58.11
67842;BME280;54642;59.126;37.876;2022-08-14T07:21:02;100615.41;;;26.27;58.67
67842;BME280;54642;59.126;37.876;2022-08-14T07:23:29;100641.63;;;26.47;58.39
67842;BME280;54642;59.126;37.876;2022-08-14T07:25:56;100635.06;;;26.53;58.65
67842;BME280;54642;59.126;37.876;2022-08-14T07:28:26;100578.53;;;26.36;58.14
67842;BME280;54642;59.126;37.876;2022-08-14T07:30:54;100640.06;;;26.86;58.57
67842;BME280;54642;59.126;37.876;2022-08-14T07:33:24;100626.56;;;26.89;57.08
67842;BME280;54642;59.126;37.876;2022-08-14T07:35:51;100641.56;;;27.05;56.61
67842;BME280;54642;59.126;37.876;2022-08-14T07:38:19;100647.97;;;27.15;56.09
67842;BME280;54642;59.126;37.876;2022-08-14T07:40:47;100641.78;;;27.14;56.21
67842;BME280;54642;59.126;37.876;2022-08-14T07:43:13;100632.59;;;27.06;56.77
67842;BME280;54642;59.126;37.876;2022-08-14T07:45:39;100630.69;;;27.08;55.84
67842;BME280;54642;59.126;37.876;2022-08-14T07:48:06;100634.13;;;27.10;55.87
67842;BME280;54642;59.126;37.876;2022-08-14T07:50:33;100639.94;;;27.02;56.46
67842;BME280;54642;59.126;37.876;2022-08-14T07:52:59;100641.38;;;26.93;56.07
67842;BME280;54642;59.126;37.876;2022-08-14T07:55:26;100601.56;;;26.65;55.74
67842;BME280;54642;59.126;37.876;2022-08-14T07:57:52;100634.06;;;26.97;56.17
67842;BME280;54642;59.126;37.876;2022-08-14T08:00:22;100629.97;;;26.91;54.92
67842;BME280;54642;59.126;37.876;2022-08-14T08:02:50;100642.72;;;26.86;55.42
67842;BME280;54642;59.126;37.876;2022-08-14T08:05:17;100646.16;;;26.74;55.36
67842;BME280;54642;59.126;37.876;2022-08-14T08:07:46;100604.97;;;26.38;55.66
67842;BME280;54642;59.126;37.876;2022-08-14T08:10:18;100644.28;;;26.47;55.63
67842;BME280;54642;59.126;37.876;2022-08-14T08:13:09;100628.78;;;26.39;56.27
67842;BME280;54642;59.126;37.876;2022-08-14T08:15:44;100644.56;;;26.42;55.52
67842;BME280;54642;59.126;37.876;2022-08-14T08:18:13;100606.69;;;26.24;55.73
67842;BME280;54642;59.126;37.876;2022-08-14T08:20:48;100601.56;;;26.21;55.50
67842;BME280;54642;59.126;37.876;2022-08-14T08:23:16;100634.56;;;26.60;55.39
67842;BME280;54642;59.126;37.876;2022-08-14T08:25:45;100604.75;;;26.55;55.23
67842;BME280;54642;59.126;37.876;2022-08-14T08:28:13;100633.31;;;26.95;55.60
67842;BME280;54642;59.126;37.876;2022-08-14T08:30:41;100621.13;;;27.05;55.00
67842;BME280;54642;59.126;37.876;2022-08-14T08:33:09;100619.03;;;27.10;54.83
67842;BME280;54642;59.126;37.876;2022-08-14T08:35:36;100620.97;;;27.21;54.64
67842;BME280;54642;59.126;37.876;2022-08-14T08:38:10;100598.72;;;27.22;54.28
67842;BME280;54642;59.126;37.876;2022-08-14T08:43:16;100595.72;;;27.41;54.13
67842;BME280;54642;59.126;37.876;2022-08-14T08:45:58;100580.19;;;27.48;53.71
67842;BME280;54642;59.126;37.876;2022-08-14T08:48:28;100610.06;;;27.79;54.11
67842;BME280;54642;59.126;37.876;2022-08-14T08:50:59;100607.59;;;27.75;53.82
67842;BME280;54642;59.126;37.876;2022-08-14T08:53:33;100611.97;;;27.76;54.10
67842;BME280;54642;59.126;37.876;2022-08-14T08:56:00;100605.16;;;27.72;54.27
67842;BME280;54642;59.126;37.876;2022-08-14T08:58:26;100588.53;;;27.69;53.86
67842;BME280;54642;59.126;37.876;2022-08-14T09:00:54;100612.53;;;27.82;53.93
67842;BME280;54642;59.126;37.876;2022-08-14T09:03:22;100611.72;;;27.54;54.46
67842;BME280;54642;59.126;37.876;2022-08-14T09:05:51;100622.47;;;27.25;55.05
67842;BME280;54642;59.126;37.876;2022-08-14T09:08:22;100578.47;;;26.79;56.00
67842;BME280;54642;59.126;37.876;2022-08-14T09:10:50;100606.00;;;26.78;57.02
67842;BME280;54642;59.126;37.876;2022-08-14T09:13:18;100597.16;;;26.78;56.73
67842;BME280;54642;59.126;37.876;2022-08-14T09:15:46;100579.88;;;26.85;57.23
67842;BME280;54642;59.126;37.876;2022-08-14T09:18:13;100577.16;;;26.99;57.05
67842;BME280;54642;59.126;37.876;2022-08-14T09:20:42;100593.44;;;27.08;56.72
67842;BME280;54642;59.126;37.876;2022-08-14T09:23:09;100604.66;;;27.13;56.38
67842;BME280;54642;59.126;37.876;2022-08-14T09:25:36;100606.28;;;27.15;56.17
67842;BME280;54642;59.126;37.876;2022-08-14T09:28:03;100588.22;;;26.79;56.35
67842;BME280;54642;59.126;37.876;2022-08-14T09:30:31;100606.50;;;26.71;56.95
67842;BME280;54642;59.126;37.876;2022-08-14T09:38:37;100602.78;;;26.30;57.96
67842;BME280;54642;59.126;37.876;2022-08-14T09:41:29;100622.16;;;26.32;58.25
67842;BME280;54642;59.126;37.876;2022-08-14T09:46:32;100582.28;;;26.47;58.47
67842;BME280;54642;59.126;37.876;2022-08-14T09:49:03;100544.72;;;26.38;57.69
67842;BME280;54642;59.126;37.876;2022-08-14T09:51:30;100591.91;;;26.91;56.92
67842;BME280;54642;59.126;37.876;2022-08-14T09:54:08;100566.16;;;26.91;56.91
67842;BME280;54642;59.126;37.876;2022-08-14T09:56:46;100596.38;;;26.90;56.67
67842;BME280;54642;59.126;37.876;2022-08-14T09:59:15;100568.72;;;26.66;56.69
67842;BME280;54642;59.126;37.876;2022-08-14T10:01:43;100606.16;;;26.90;56.69
67842;BME280;54642;59.126;37.876;2022-08-14T10:04:22;100563.59;;;26.90;56.24
67842;BME280;54642;59.126;37.876;2022-08-14T10:06:49;100587.72;;;27.28;56.05
67842;BME280;54642;59.126;37.876;2022-08-14T10:09:16;100550.31;;;27.17;55.94
67842;BME280;54642;59.126;37.876;2022-08-14T10:11:54;100553.47;;;27.22;56.17
67842;BME280;54642;59.126;37.876;2022-08-14T10:14:23;100590.66;;;27.51;55.36
67842;BME280;54642;59.126;37.876;2022-08-14T10:16:54;100576.38;;;27.52;55.66
67842;BME280;54642;59.126;37.876;2022-08-14T10:19:25;100583.59;;;27.50;55.87
67842;BME280;54642;59.126;37.876;2022-08-14T10:24:40;100586.19;;;27.64;56.13
67842;BME280;54642;59.126;37.876;2022-08-14T10:27:20;100581.31;;;27.71;55.76
67842;BME280;54642;59.126;37.876;2022-08-14T10:29:53;100556.25;;;27.48;55.85
67842;BME280;54642;59.126;37.876;2022-08-14T10:32:20;100592.88;;;27.44;55.85
67842;BME280;54642;59.126;37.876;2022-08-14T10:34:48;100540.19;;;26.82;55.77
67842;BME280;54642;59.126;37.876;2022-08-14T10:37:16;100611.75;;;26.99;55.48
67842;BME280;54642;59.126;37.876;2022-08-14T10:40:03;100598.94;;;26.92;55.40
67842;BME280;54642;59.126;37.876;2022-08-14T10:42:38;100598.28;;;26.88;56.03
67842;BME280;54642;59.126;37.876;2022-08-14T10:45:30;100573.63;;;26.72;56.48
67842;BME280;54642;59.126;37.876;2022-08-14T10:47:56;100596.00;;;26.82;55.31
67842;BME280;54642;59.126;37.876;2022-08-14T10:50:34;100591.38;;;26.71;56.55
67842;BME280;54642;59.126;37.876;2022-08-14T10:53:00;100602.69;;;26.75;56.25
67842;BME280;54642;59.126;37.876;2022-08-14T10:55:37;100593.94;;;26.73;55.91
67842;BME280;54642;59.126;37.876;2022-08-14T10:58:07;100562.56;;;26.65;55.07
67842;BME280;54642;59.126;37.876;2022-08-14T11:00:39;100592.78;;;26.77;55.52
67842;BME280;54642;59.126;37.876;2022-08-14T11:03:11;100606.28;;;26.74;55.64
67842;BME280;54642;59.126;37.876;2022-08-14T11:08:07;100588.91;;;26.54;57.12
67842;BME280;54642;59.126;37.876;2022-08-14T11:13:04;100585.22;;;26.56;56.05
67842;BME280;54642;59.126;37.876;2022-08-14T11:15:31;100581.69;;;26.56;56.59
67842;BME280;54642;59.126;37.876;2022-08-14T11:17:58;100561.97;;;26.46;56.45
67842;BME280;54642;59.126;37.876;2022-08-14T11:20:26;100574.31;;;26.61;55.79
67842;BME280;54642;59.126;37.876;2022-08-14T11:22:54;100585.41;;;26.68;54.93
67842;BME280;54642;59.126;37.876;2022-08-14T11:25:28;100590.44;;;26.72;55.36
67842;BME280;54642;59.126;37.876;2022-08-14T11:27:57;100589.88;;;26.67;55.96
67842;BME280;54642;59.126;37.876;2022-08-14T11:30:27;100585.97;;;26.58;55.32
67842;BME280;54642;59.126;37.876;2022-08-14T11:32:56;100587.78;;;26.72;54.90
67842;BME280;54642;59.126;37.876;2022-08-14T11:35:24;100593.34;;;26.82;54.72
67842;BME280;54642;59.126;37.876;2022-08-14T11:38:00;100585.09;;;26.87;54.33
67842;BME280;54642;59.126;37.876;2022-08-14T11:40:28;100584.94;;;27.03;54.19
67842;BME280;54642;59.126;37.876;2022-08-14T11:42:56;100529.72;;;26.79;54.93
67842;BME280;54642;59.126;37.876;2022-08-14T11:45:27;100582.00;;;27.20;54.45
67842;BME280;54642;59.126;37.876;2022-08-14T11:47:55;100589.75;;;27.37;54.09
67842;BME280;54642;59.126;37.876;2022-08-14T11:50:25;100590.72;;;27.36;53.89
67842;BME280;54642;59.126;37.876;2022-08-14T11:52:52;100554.47;;;27.21;53.45
67842;BME280;54642;59.126;37.876;2022-08-14T11:55:19;100572.88;;;27.24;53.48
67842;BME280;54642;59.126;37.876;2022-08-14T11:57:58;100588.06;;;27.22;53.45
67842;BME280;54642;59.126;37.876;2022-08-14T12:00:26;100564.66;;;27.14;53.38
67842;BME280;54642;59.126;37.876;2022-08-14T12:02:56;100549.69;;;27.26;52.76
67842;BME280;54642;59.126;37.876;2022-08-14T12:05:36;100546.97;;;27.28;52.16
67842;BME280;54642;59.126;37.876;2022-08-14T12:08:08;100579.88;;;27.52;53.36
67842;BME280;54642;59.126;37.876;2022-08-14T12:10:36;100571.50;;;27.58;52.40
67842;BME280;54642;59.126;37.876;2022-08-14T12:13:17;100561.03;;;27.68;52.44
67842;BME280;54642;59.126;37.876;2022-08-14T12:15:56;100550.28;;;27.57;52.36
67842;BME280;54642;59.126;37.876;2022-08-14T12:18:36;100558.81;;;27.75;51.88
67842;BME280;54642;59.126;37.876;2022-08-14T12:23:42;100527.50;;;27.53;51.20
67842;BME280;54642;59.126;37.876;2022-08-14T12:26:18;100561.38;;;27.76;50.91
67842;BME280;54642;59.126;37.876;2022-08-14T12:28:48;100558.91;;;27.86;50.27
67842;BME280;54642;59.126;37.876;2022-08-14T12:31:19;100542.31;;;27.83;50.72
67842;BME280;54642;59.126;37.876;2022-08-14T12:33:59;100528.88;;;27.71;50.84
67842;BME280;54642;59.126;37.876;2022-08-14T12:36:27;100518.69;;;27.65;51.31
67842;BME280;54642;59.126;37.876;2022-08-14T12:38:56;100518.88;;;27.62;51.69
67842;BME280;54642;59.126;37.876;2022-08-14T12:41:24;100536.25;;;27.68;51.72
67842;BME280;54642;59.126;37.876;2022-08-14T12:44:02;100510.34;;;27.57;52.23
67842;BME280;54642;59.126;37.876;2022-08-14T12:51:34;100505.47;;;27.64;51.19
67842;BME280;54642;59.126;37.876;2022-08-14T12:54:12;100539.34;;;27.74;50.68
67842;BME280;54642;59.126;37.876;2022-08-14T12:56:39;100541.25;;;27.72;51.06
67842;BME280;54642;59.126;37.876;2022-08-14T12:59:05;100543.38;;;27.67;51.87
67842;BME280;54642;59.126;37.876;2022-08-14T13:01:32;100504.06;;;27.32;51.84
67842;BME280;54642;59.126;37.876;2022-08-14T13:04:10;100509.06;;;27.37;51.69
67842;BME280;54642;59.126;37.876;2022-08-14T13:06:43;100529.94;;;27.56;51.38
67842;BME280;54642;59.126;37.876;2022-08-14T13:09:13;100510.25;;;27.46;50.74
67842;BME280;54642;59.126;37.876;2022-08-14T13:11:47;100510.13;;;27.34;50.95
67842;BME280;54642;59.126;37.876;2022-08-14T13:14:17;100531.00;;;27.41;50.91
67842;BME280;54642;59.126;37.876;2022-08-14T13:16:48;100521.41;;;27.38;52.22
67842;BME280;54642;59.126;37.876;2022-08-14T13:19:18;100502.28;;;27.18;52.18